EW6939 Weather Reports


time (UTC)temp
C
wind
direction
speed
KPH
gust
KPH
rain 1hr
cm
rain 24hr
cm
rain mn
cm
humidity
%
barometer
mb
20190424220237 8 67 0.0 1.6 0.00 0.00 0.00 61 1008.2
20190424215304 9 184 0.0 3.2 0.00 0.00 0.00 61 1008.2
20190424214332 10 271 0.0 1.6 0.00 0.00 0.00 59 1008.0
20190424213401 10 35 0.0 1.6 0.00 0.00 0.00 59 1008.1
20190424212300 10 276 0.0 1.6 0.00 0.00 0.00 58 1007.9
20190424211258 10 301 1.6 8.0 0.00 0.00 0.00 58 1008.0
20190424210256 10 324 1.6 6.4 0.00 0.00 0.00 57 1007.7
20190424205255 11 324 3.2 8.0 0.00 0.00 0.00 56 1007.6
20190424204252 11 311 4.8 9.7 0.00 0.00 0.00 56 1007.6
20190424203251 11 318 4.8 9.7 0.00 0.00 0.00 55 1007.6
20190424202249 12 333 4.8 14.5 0.00 0.00 0.00 54 1007.5
20190424201247 12 327 3.2 9.7 0.00 0.00 0.00 54 1007.2
20190424200245 13 334 3.2 8.0 0.00 0.00 0.00 54 1006.9
20190424195243 13 302 6.4 14.5 0.00 0.00 0.00 53 1006.6
20190424194241 14 306 6.4 9.7 0.00 0.00 0.00 52 1006.5
20190424193239 15 324 6.4 16.1 0.00 0.00 0.00 51 1006.0
20190424192237 16 296 6.4 20.9 0.00 0.00 0.00 48 1005.7
20190424191305 16 256 6.4 20.9 0.00 0.00 0.00 47 1005.3
20190424190303 17 241 8.0 16.1 0.00 0.00 0.00 44 1004.9
20190424185231 17 233 8.0 25.7 0.00 0.00 0.00 43 1004.7
20190424184301 17 244 4.8 20.9 0.00 0.00 0.00 42 1004.4
20190424183258 17 165 3.2 20.9 0.00 0.00 0.00 42 1004.1
20190424182256 17 201 4.8 16.1 0.00 0.00 0.00 41 1003.8
20190424181254 18 257 6.4 20.9 0.00 0.00 0.00 41 1003.7
20190424180253 18 213 6.4 16.1 0.00 0.00 0.00 40 1003.5
20190424175251 18 196 8.0 22.5 0.00 0.00 0.00 39 1003.4
20190424174249 19 223 4.8 16.1 0.00 0.00 0.00 39 1003.1
20190424173248 20 232 6.4 19.3 0.00 0.00 0.00 39 1002.8
20190424172246 20 212 1.6 8.0 0.00 0.00 0.00 39 1002.8
20190424171244 21 256 6.4 14.5 0.00 0.00 0.00 38 1002.7
20190424170242 21 218 6.4 20.9 0.00 0.00 0.00 37 1002.5
20190424165240 21 203 4.8 16.1 0.00 0.00 0.00 37 1002.1
20190424164238 21 209 4.8 16.1 0.00 0.00 0.00 38 1002.0
20190424163237 21 209 4.8 12.9 0.00 0.00 0.00 38 1001.9
20190424162304 21 222 3.2 12.9 0.00 0.00 0.00 38 1001.8
20190424161303 22 232 3.2 9.7 0.00 0.00 0.00 37 1001.7
20190424160301 22 225 6.4 14.5 0.00 0.00 0.00 37 1001.5
20190424155259 22 258 4.8 12.9 0.00 0.00 0.00 35 1001.4
20190424154257 22 199 3.2 8.0 0.00 0.00 0.00 36 1001.3
20190424153255 22 197 3.2 9.7 0.00 0.00 0.00 36 1001.1
20190424152254 22 169 3.2 9.7 0.00 0.00 0.00 38 1001.1
20190424151252 22 164 1.6 6.4 0.00 0.00 0.00 40 1001.1
20190424150250 22 125 1.6 8.0 0.00 0.00 0.00 40 1001.1
20190424145249 22 131 1.6 9.7 0.00 0.00 0.00 38 1001.0
20190424144317 22 133 1.6 6.4 0.00 0.00 0.00 37 1001.1
20190424143245 21 158 1.6 12.9 0.00 0.00 0.00 39 1001.1
20190424142249 21 168 1.6 9.7 0.00 0.00 0.00 38 1001.1
20190424141242 21 172 1.6 3.2 0.00 0.00 0.00 39 1001.1
20190424140240 21 136 4.8 12.9 0.00 0.00 0.00 38 1001.3
20190424135308 21 154 6.4 12.9 0.00 0.00 0.00 38 1001.5
20190424134306 21 165 6.4 9.7 0.00 0.00 0.00 36 1001.4
20190424133234 21 156 4.8 12.9 0.00 0.00 0.00 36 1001.4
20190424132233 21 121 6.4 14.5 0.00 0.00 0.00 36 1001.5
20190424131301 22 187 6.4 16.1 0.00 0.00 0.00 35 1001.5
20190424130259 22 165 3.2 12.9 0.00 0.00 0.00 37 1001.5
20190424125257 22 130 4.8 14.5 0.00 0.00 0.00 37 1001.7
20190424124256 22 166 6.4 14.5 0.00 0.00 0.00 37 1001.6
20190424123254 22 147 6.4 16.1 0.00 0.00 0.00 36 1001.7
20190424122253 22 149 8.0 14.5 0.00 0.00 0.00 38 1001.6
20190424121251 22 136 6.4 16.1 0.00 0.00 0.00 35 1001.6
20190424120249 22 150 4.8 14.5 0.00 0.00 0.00 36 1001.7
20190424115248 23 185 1.6 12.9 0.00 0.00 0.00 36 1001.6
20190424114246 23 103 1.6 6.4 0.00 0.00 0.00 38 1001.7
20190424113245 22 161 3.2 12.9 0.00 0.00 0.00 36 1001.9
20190424112313 23 156 3.2 8.0 0.00 0.00 0.00 35 1001.9
20190424111241 22 179 4.8 16.1 0.00 0.00 0.00 36 1001.9
20190424110240 22 181 3.2 9.7 0.00 0.00 0.00 36 1001.9
20190424105237 22 134 6.4 14.5 0.00 0.36 0.00 37 1001.9
20190424104306 22 168 1.6 6.4 0.00 0.36 0.00 40 1001.8
20190424103304 22 259 4.8 12.9 0.00 0.36 0.00 41 1001.7
20190424102305 22 174 3.2 9.7 0.00 0.36 0.00 41 1001.8
20190424101301 22 234 6.4 14.5 0.00 0.36 0.00 42 1001.8
20190424100259 21 229 3.2 9.7 0.00 0.36 0.00 45 1001.8
20190424095257 21 217 3.2 12.9 0.00 0.36 0.00 48 1001.8
20190424094255 20 183 1.6 9.7 0.00 0.36 0.00 50 1001.9
20190424093253 20 59 1.6 8.0 0.00 0.36 0.00 52 1002.1
20190424092251 20 227 1.6 6.4 0.00 0.36 0.00 51 1002.1
20190424091249 19 275 1.6 6.4 0.00 0.36 0.00 53 1002.1
20190424090248 18 276 1.6 6.4 0.00 0.36 0.00 55 1002.2
20190424085246 17 326 1.6 6.4 0.00 0.36 0.00 56 1002.1
20190424084314 17 298 1.6 6.4 0.00 0.36 0.00 57 1002.2
20190424083242 16 310 0.0 1.6 0.00 0.36 0.00 59 1002.1
20190424082241 16 275 3.2 6.4 0.00 0.36 0.00 59 1002.1
20190424081309 16 313 1.6 6.4 0.00 0.36 0.00 61 1002.0
20190424080236 15 282 1.6 6.4 0.00 0.36 0.00 62 1002.0
20190424075235 15 221 0.0 3.2 0.00 0.36 0.00 62 1001.9
20190424074303 15 185 0.0 3.2 0.00 0.36 0.00 63 1001.8
20190424073301 15 157 0.0 3.2 0.00 0.36 0.00 64 1001.9
20190424072300 14 157 0.0 3.2 0.00 0.36 0.00 64 1001.8
20190424071258 13 150 1.6 3.2 0.00 0.36 0.00 67 1001.6
20190424070255 12 150 0.0 3.2 0.00 0.36 0.00 70 1001.5
20190424065254 12 173 1.6 6.4 0.00 0.36 0.00 70 1001.5
20190424064322 11 202 1.6 6.4 0.00 0.36 0.00 71 1001.5
20190424063251 11 163 1.6 6.4 0.00 0.36 0.00 71 1001.5
20190424062249 11 150 3.2 8.0 0.00 0.36 0.00 71 1001.4
20190424061252 10 123 0.0 3.2 0.00 0.36 0.00 71 1001.3
20190424060244 10 142 1.6 8.0 0.00 0.36 0.00 72 1001.2
20190424055243 8 168 0.0 3.2 0.00 0.36 0.00 75 1001.1
20190424054242 7 149 1.6 6.4 0.00 0.36 0.00 76 1001.1
20190424053239 7 0.0 0.0 0.00 0.36 0.00 74 1001.2
20190424052308 6 67 0.0 1.6 0.00 0.36 0.00 73 1001.0
20190424051306 6 75 0.0 1.6 0.00 0.36 0.00 72 1000.9
20190424050304 6 0.0 0.0 0.00 0.36 0.00 72 1000.7
20190424045302 6 90 0.0 1.6 0.00 0.36 0.00 72 1000.7
20190424044301 6 180 0.0 1.6 0.00 0.36 0.00 72 1000.5
20190424043259 6 0.0 0.0 0.00 0.36 0.00 72 1000.5
20190424042327 6 135 0.0 1.6 0.00 0.36 0.00 71 1000.4
20190424041256 6 175 0.0 1.6 0.00 0.36 0.00 70 1000.4
20190424040254 7 101 0.0 1.6 0.00 0.36 0.00 70 1000.2
20190424035253 7 0.0 1.6 0.00 0.36 0.00 69 1000.2
20190424034251 7 157 0.0 1.6 0.00 0.36 0.00 68 1000.1
20190424033250 7 0.0 0.0 0.00 0.36 0.00 68 1000.0
20190424032248 7 157 0.0 1.6 0.00 0.36 0.00 68 999.9
20190424031247 8 0.0 0.0 0.00 0.36 0.00 67 999.9
20190424030315 8 0.0 0.0 0.00 0.36 0.00 67 999.8
20190424025244 8 0.0 0.0 0.00 0.36 0.00 66 999.8
20190424024243 8 135 0.0 1.6 0.00 0.36 0.00 66 999.7
20190424023241 9 180 0.0 1.6 0.00 0.36 0.00 65 999.6
20190424022239 9 176 0.0 1.6 0.00 0.36 0.00 64 999.5
20190424021307 10 261 0.0 3.2 0.00 0.36 0.00 64 999.4
20190424020305 10 0.0 0.0 0.00 0.36 0.00 64 999.5
20190424015334 10 0.0 0.0 0.00 0.36 0.00 64 999.5
20190424014302 10 227 0.0 3.2 0.00 0.36 0.00 63 999.4
20190424013300 10 261 0.0 3.2 0.00 0.36 0.00 63 999.3
20190424012259 11 246 1.6 3.2 0.00 0.36 0.00 63 999.2
20190424011257 11 212 1.6 3.2 0.00 0.36 0.00 63 999.3
20190424010255 11 250 0.0 3.2 0.00 0.36 0.00 63 999.2
20190424005254 10 211 1.6 3.2 0.00 0.36 0.00 64 999.2
20190424004252 10 194 1.6 6.4 0.00 0.36 0.00 64 999.1
20190424003250 10 225 0.0 3.2 0.00 0.36 0.00 64 999.1
20190424002319 10 227 0.0 1.6 0.00 0.36 0.00 64 999.1
20190424001247 10 203 0.0 6.4 0.00 0.36 0.00 64 999.1
20190424000316 10 180 0.0 3.2 0.00 0.36 0.00 64 999.2
20190423235244 10 237 0.0 3.2 0.00 0.36 0.00 64 999.2
20190423234243 10 215 0.0 6.4 0.00 0.36 0.00 64 999.0
20190423233311 10 200 0.0 6.4 0.00 0.36 0.00 64 999.0
20190423232239 10 186 1.6 6.4 0.00 0.36 0.00 64 999.0
20190423231338 10 181 0.0 6.4 0.00 0.36 0.00 64 999.0
20190423230306 10 0.0 0.0 0.00 0.36 0.00 64 999.0
20190423225304 10 157 0.0 1.6 0.00 0.36 0.00 64 999.0
20190423224333 11 225 0.0 1.6 0.00 0.36 0.00 63 998.9
20190423223302 11 166 0.0 3.2 0.00 0.36 0.00 62 998.9
20190423222300 11 173 0.0 1.6 0.00 0.36 0.00 62 998.8
20190423221258 11 155 1.6 6.4 0.00 0.36 0.00 60 998.8